createdAt,value
2018-03-08T00:00:08.442Z,5.65
2018-03-08T00:02:35.901Z,5.75
2018-03-08T00:05:03.333Z,5.70
2018-03-08T00:07:31.048Z,5.71
2018-03-08T00:09:58.481Z,5.62
2018-03-08T00:12:25.917Z,5.58
2018-03-08T00:14:53.499Z,5.47
2018-03-08T00:17:20.947Z,5.44
2018-03-08T00:19:48.414Z,5.46
2018-03-08T00:22:15.857Z,5.41
2018-03-08T00:24:43.313Z,5.35
2018-03-08T00:27:10.769Z,5.33
2018-03-08T00:29:38.221Z,5.28
2018-03-08T00:32:05.707Z,5.23
2018-03-08T00:34:33.146Z,5.13
2018-03-08T00:37:00.876Z,5.02
2018-03-08T00:39:28.361Z,5.06
2018-03-08T00:41:55.805Z,5.13
2018-03-08T00:44:23.597Z,4.91
2018-03-08T00:46:51.070Z,4.97
2018-03-08T00:49:18.529Z,4.97
2018-03-08T00:51:45.985Z,4.97
2018-03-08T00:54:13.424Z,4.93
2018-03-08T00:56:41.157Z,5.02
2018-03-08T00:59:08.593Z,4.87
2018-03-08T01:01:36.049Z,4.92
2018-03-08T01:04:03.505Z,4.90
2018-03-08T01:06:30.949Z,4.81
2018-03-08T01:08:58.435Z,4.81
2018-03-08T01:11:25.869Z,4.77
2018-03-08T01:13:53.316Z,4.81
2018-03-08T01:16:20.777Z,4.73
2018-03-08T01:18:48.213Z,4.76
2018-03-08T01:21:15.768Z,4.73
2018-03-08T01:23:43.218Z,4.66
2018-03-08T01:26:10.664Z,4.62
2018-03-08T01:28:38.149Z,4.63
2018-03-08T01:31:05.587Z,4.57
2018-03-08T01:33:33.098Z,4.58
2018-03-08T01:36:00.533Z,4.54
2018-03-08T01:38:27.994Z,4.41
2018-03-08T01:40:55.461Z,4.42
2018-03-08T01:43:22.934Z,4.38
2018-03-08T01:45:50.407Z,4.18
2018-03-08T01:48:17.900Z,4.14
2018-03-08T01:50:45.357Z,3.95
2018-03-08T01:53:12.816Z,3.89
2018-03-08T01:55:40.254Z,3.70
2018-03-08T01:58:07.730Z,3.66
2018-03-08T02:00:35.197Z,3.66
2018-03-08T02:03:02.636Z,3.70
2018-03-08T02:05:30.113Z,3.64
2018-03-08T02:07:57.549Z,3.76
2018-03-08T02:10:25.025Z,3.80
2018-03-08T02:12:52.465Z,3.69
2018-03-08T02:15:19.929Z,3.67
2018-03-08T02:17:47.390Z,3.88
2018-03-08T02:20:14.829Z,3.90
2018-03-08T02:22:42.593Z,3.93
2018-03-08T02:25:10.032Z,3.87
2018-03-08T02:27:37.465Z,4.04
2018-03-08T02:30:04.942Z,3.89
2018-03-08T02:32:32.425Z,3.70
2018-03-08T02:35:00.408Z,3.62
2018-03-08T02:37:27.865Z,3.60
2018-03-08T02:39:55.319Z,3.68
2018-03-08T02:42:22.774Z,3.40
2018-03-08T02:44:50.266Z,3.39
2018-03-08T02:47:17.742Z,3.34
2018-03-08T02:49:45.178Z,3.35
2018-03-08T02:52:12.634Z,3.15
2018-03-08T02:54:40.097Z,2.78
2018-03-08T02:57:07.545Z,2.73
2018-03-08T02:59:35.145Z,2.81
2018-03-08T03:02:02.592Z,2.99
2018-03-08T03:04:30.029Z,2.62
2018-03-08T03:06:57.485Z,2.51
2018-03-08T03:09:24.929Z,2.41
2018-03-08T03:11:52.601Z,2.25
2018-03-08T03:14:20.045Z,2.48
2018-03-08T03:16:47.510Z,2.30
2018-03-08T03:19:14.995Z,2.25
2018-03-08T03:21:42.457Z,2.23
2018-03-08T03:24:09.919Z,2.21
2018-03-08T03:26:37.393Z,2.18
2018-03-08T03:29:04.838Z,2.20
2018-03-08T03:31:32.307Z,2.27
2018-03-08T03:33:59.754Z,2.19
2018-03-08T03:36:27.376Z,2.56
2018-03-08T03:38:54.813Z,2.49
2018-03-08T03:41:22.253Z,2.52
2018-03-08T03:43:49.769Z,2.38
2018-03-08T03:46:17.210Z,2.30
2018-03-08T03:48:44.682Z,2.40
2018-03-08T03:51:12.113Z,2.43
2018-03-08T03:53:39.553Z,2.32
2018-03-08T03:56:07.011Z,2.10
2018-03-08T03:58:34.473Z,1.83
2018-03-08T04:01:07.949Z,2.07
2018-03-08T04:03:35.385Z,1.85
2018-03-08T04:06:02.826Z,1.75
2018-03-08T04:08:30.289Z,1.64
2018-03-08T04:10:57.725Z,1.67
2018-03-08T04:13:25.282Z,1.38
2018-03-08T04:15:52.722Z,1.55
2018-03-08T04:18:20.163Z,1.61
2018-03-08T04:20:47.637Z,1.64
2018-03-08T04:23:15.086Z,1.38
2018-03-08T04:25:42.550Z,1.39
2018-03-08T04:28:10.000Z,1.46
2018-03-08T04:30:37.433Z,1.40
2018-03-08T04:33:04.898Z,1.36
2018-03-08T04:35:32.349Z,1.31
2018-03-08T04:37:59.813Z,1.36
2018-03-08T04:40:27.264Z,1.43
2018-03-08T04:42:54.697Z,1.59
2018-03-08T04:45:22.165Z,1.89
2018-03-08T04:47:49.614Z,2.41
2018-03-08T04:50:17.221Z,2.65
2018-03-08T04:52:44.673Z,2.77
2018-03-08T04:55:12.113Z,2.47
2018-03-08T04:57:39.582Z,2.19
2018-03-08T05:00:07.023Z,2.27
2018-03-08T05:02:34.660Z,2.19
2018-03-08T05:05:02.098Z,2.05
2018-03-08T05:07:29.542Z,2.09
2018-03-08T05:09:57.006Z,2.24
2018-03-08T05:12:24.469Z,2.34
2018-03-08T05:14:52.330Z,2.40
2018-03-08T05:17:19.808Z,2.41
2018-03-08T05:19:47.229Z,2.32
2018-03-08T05:22:14.708Z,2.32
2018-03-08T05:24:42.153Z,2.30
2018-03-08T05:27:09.621Z,2.16
2018-03-08T05:29:37.085Z,2.04
2018-03-08T05:32:04.549Z,2.08
2018-03-08T05:34:32.005Z,2.08
2018-03-08T05:36:59.474Z,2.17
2018-03-08T05:39:26.969Z,2.13
2018-03-08T05:41:54.423Z,2.27
2018-03-08T05:44:21.866Z,2.27
2018-03-08T05:46:49.329Z,2.34
2018-03-08T05:49:16.770Z,2.27
2018-03-08T05:51:44.393Z,2.07
2018-03-08T05:54:11.833Z,2.19
2018-03-08T05:56:39.290Z,2.21
2018-03-08T05:59:06.757Z,2.24
2018-03-08T06:01:34.205Z,2.38
2018-03-08T06:04:01.829Z,2.49
2018-03-08T06:06:29.282Z,2.46
2018-03-08T06:08:56.747Z,2.42
2018-03-08T06:11:24.221Z,2.59
2018-03-08T06:13:51.665Z,2.58
2018-03-08T06:16:19.171Z,2.61
2018-03-08T06:18:46.625Z,2.67
2018-03-08T06:21:14.069Z,2.63
2018-03-08T06:23:41.534Z,2.79
2018-03-08T06:26:08.996Z,2.95
2018-03-08T06:28:36.625Z,3.01
2018-03-08T06:31:04.086Z,3.10
2018-03-08T06:33:31.550Z,3.11
2018-03-08T06:35:59.014Z,3.19
2018-03-08T06:38:26.461Z,3.28
2018-03-08T06:40:53.946Z,3.28
2018-03-08T06:43:21.389Z,3.46
2018-03-08T06:45:48.830Z,3.59
2018-03-08T06:48:16.289Z,3.64
2018-03-08T06:50:43.729Z,3.69
2018-03-08T06:53:11.326Z,3.88
2018-03-08T06:55:38.774Z,4.08
2018-03-08T06:58:06.221Z,4.24
2018-03-08T07:00:33.689Z,4.46
2018-03-08T07:03:01.142Z,4.52
2018-03-08T07:05:28.618Z,4.63
2018-03-08T07:07:56.382Z,4.64
2018-03-08T07:10:23.879Z,4.73
2018-03-08T07:12:51.345Z,4.76
2018-03-08T07:15:18.791Z,4.84
2018-03-08T07:17:46.262Z,4.91
2018-03-08T07:20:13.697Z,4.93
2018-03-08T07:22:41.133Z,4.88
2018-03-08T07:25:08.591Z,4.90
2018-03-08T07:27:36.034Z,5.03
2018-03-08T07:30:03.677Z,5.24
2018-03-08T07:32:31.121Z,5.29
2018-03-08T07:34:58.571Z,5.26
2018-03-08T07:37:26.038Z,5.27
2018-03-08T07:39:53.479Z,5.33
2018-03-08T07:42:21.125Z,5.35
2018-03-08T07:44:48.579Z,5.46
2018-03-08T07:47:16.033Z,5.41
2018-03-08T07:49:43.490Z,5.40
2018-03-08T07:52:10.930Z,5.52
2018-03-08T07:54:38.590Z,5.58
2018-03-08T07:57:06.054Z,5.55
2018-03-08T07:59:33.522Z,5.66
2018-03-08T08:02:00.992Z,5.62
2018-03-08T08:04:40.201Z,5.71
2018-03-08T08:07:19.441Z,5.71
2018-03-08T08:09:46.890Z,5.80
2018-03-08T08:12:14.361Z,5.80
2018-03-08T08:14:41.793Z,5.95
2018-03-08T08:17:09.278Z,6.09
2018-03-08T08:19:36.717Z,5.90
2018-03-08T08:22:04.153Z,5.87
2018-03-08T08:24:31.625Z,6.06
2018-03-08T08:26:59.061Z,6.14
2018-03-08T08:29:26.561Z,6.11
2018-03-08T08:31:54.010Z,6.17
2018-03-08T08:34:21.457Z,6.32
2018-03-08T08:36:48.918Z,6.27
2018-03-08T08:39:16.375Z,6.31
2018-03-08T08:41:43.957Z,6.31
2018-03-08T08:44:11.390Z,6.23
2018-03-08T08:46:38.831Z,6.30
2018-03-08T08:49:06.316Z,6.40
2018-03-08T08:51:33.758Z,6.41
2018-03-08T08:54:01.397Z,6.49
2018-03-08T08:56:28.846Z,6.56
2018-03-08T08:58:56.296Z,6.55
2018-03-08T09:01:23.750Z,6.74
2018-03-08T09:03:51.182Z,6.88
2018-03-08T09:06:18.822Z,7.05
2018-03-08T09:08:46.266Z,7.20
2018-03-08T09:11:13.709Z,7.21
2018-03-08T09:13:41.174Z,7.44
2018-03-08T09:16:08.613Z,7.31
2018-03-08T09:18:36.077Z,7.43
2018-03-08T09:21:03.538Z,7.45
2018-03-08T09:23:30.970Z,7.54
2018-03-08T09:25:58.428Z,7.54
2018-03-08T09:28:25.889Z,7.82
2018-03-08T09:30:53.446Z,7.74
2018-03-08T09:33:20.878Z,7.80
2018-03-08T09:35:48.318Z,8.06
2018-03-08T09:38:15.802Z,8.04
2018-03-08T09:40:43.237Z,8.05
2018-03-08T09:43:10.902Z,7.98
2018-03-08T09:45:38.434Z,8.08
2018-03-08T09:48:05.893Z,7.88
2018-03-08T09:50:33.353Z,7.84
2018-03-08T09:53:00.785Z,7.99
2018-03-08T09:55:28.257Z,8.08
2018-03-08T09:57:55.699Z,8.32
2018-03-08T10:00:23.137Z,8.40
2018-03-08T10:02:50.609Z,8.64
2018-03-08T10:05:18.046Z,8.77
2018-03-08T10:07:45.653Z,8.82
2018-03-08T10:10:13.109Z,8.72
2018-03-08T10:12:40.553Z,8.69
2018-03-08T10:15:08.015Z,8.59
2018-03-08T10:17:35.484Z,9.05
2018-03-08T10:20:02.958Z,9.18
2018-03-08T10:22:30.393Z,9.24
2018-03-08T10:24:57.832Z,9.26
2018-03-08T10:27:25.290Z,9.26
2018-03-08T10:29:52.726Z,9.44
2018-03-08T10:32:20.386Z,9.61
2018-03-08T10:34:47.854Z,9.68
2018-03-08T10:37:15.418Z,9.47
2018-03-08T10:39:42.934Z,9.66
2018-03-08T10:42:10.365Z,9.83
2018-03-08T10:44:37.841Z,10.01
2018-03-08T10:47:05.288Z,10.00
2018-03-08T10:49:32.725Z,9.84
2018-03-08T10:52:00.183Z,9.88
2018-03-08T10:54:27.633Z,9.87
2018-03-08T10:56:55.286Z,9.86
2018-03-08T10:59:22.721Z,10.01
2018-03-08T11:01:55.784Z,10.12
2018-03-08T11:04:28.342Z,10.37
2018-03-08T11:06:55.809Z,10.24
2018-03-08T11:09:23.281Z,10.21
2018-03-08T11:11:50.733Z,10.34
2018-03-08T11:14:18.189Z,9.91
2018-03-08T11:16:45.638Z,10.18
2018-03-08T11:19:13.273Z,10.03
2018-03-08T11:21:41.309Z,9.86
2018-03-08T11:24:08.742Z,9.94
2018-03-08T11:26:36.223Z,10.27
2018-03-08T11:29:03.674Z,10.29
2018-03-08T11:31:31.328Z,10.27
2018-03-08T11:33:58.782Z,10.47
2018-03-08T11:36:26.238Z,10.72
2018-03-08T11:38:53.701Z,10.86
2018-03-08T11:41:21.143Z,10.94
2018-03-08T11:43:48.786Z,11.11
2018-03-08T11:46:16.241Z,11.17
2018-03-08T11:48:43.693Z,11.33
2018-03-08T11:51:11.159Z,11.61
2018-03-08T11:53:38.621Z,11.46
2018-03-08T11:56:06.310Z,11.34
2018-03-08T11:58:33.753Z,11.37
2018-03-08T12:01:01.220Z,11.30
2018-03-08T12:03:28.718Z,11.36
2018-03-08T12:05:56.200Z,11.58
2018-03-08T12:08:23.664Z,11.52
2018-03-08T12:10:51.102Z,11.73
2018-03-08T12:13:18.561Z,11.96
2018-03-08T12:15:46.031Z,11.85
2018-03-08T12:18:13.480Z,11.60
2018-03-08T12:20:40.953Z,12.00
2018-03-08T12:23:08.397Z,11.94
2018-03-08T12:25:35.848Z,11.82
2018-03-08T12:28:03.329Z,11.69
2018-03-08T12:30:30.773Z,11.98
2018-03-08T12:32:58.246Z,12.05
2018-03-08T12:35:25.716Z,12.03
2018-03-08T12:37:53.160Z,12.03
2018-03-08T12:40:20.662Z,12.02
2018-03-08T12:42:48.137Z,12.04
2018-03-08T12:45:15.750Z,12.19
2018-03-08T12:47:43.189Z,12.47
2018-03-08T12:50:10.641Z,12.38
2018-03-08T12:52:38.112Z,12.12
2018-03-08T12:55:05.562Z,12.52
2018-03-08T12:57:33.191Z,12.50
2018-03-08T13:00:00.642Z,12.50
2018-03-08T13:02:28.081Z,12.26
2018-03-08T13:04:55.553Z,12.33
2018-03-08T13:07:23.005Z,12.16
2018-03-08T13:09:50.481Z,11.98
2018-03-08T13:12:17.925Z,12.09
2018-03-08T13:14:45.387Z,12.04
2018-03-08T13:17:12.859Z,12.05
2018-03-08T13:19:41.644Z,11.94
2018-03-08T13:22:09.310Z,12.09
2018-03-08T13:24:36.756Z,12.10
2018-03-08T13:27:04.218Z,11.78
2018-03-08T13:29:31.681Z,11.91
2018-03-08T13:31:59.130Z,11.68
2018-03-08T13:34:26.570Z,11.67
2018-03-08T13:36:54.061Z,11.57
2018-03-08T13:39:21.526Z,11.58
2018-03-08T13:41:48.973Z,11.48
2018-03-08T13:44:16.445Z,11.45
2018-03-08T13:46:43.885Z,11.47
2018-03-08T13:49:23.566Z,11.76
2018-03-08T13:51:51.005Z,11.78
2018-03-08T13:54:18.449Z,11.68
2018-03-08T13:56:45.925Z,11.58
2018-03-08T13:59:13.366Z,11.79
2018-03-08T14:01:40.806Z,11.84
2018-03-08T14:04:08.266Z,11.83
2018-03-08T14:06:35.721Z,12.10
2018-03-08T14:09:03.161Z,11.99
2018-03-08T14:11:30.786Z,11.94
2018-03-08T14:13:58.253Z,11.95
2018-03-08T14:16:25.692Z,11.85
2018-03-08T14:18:53.465Z,12.01
2018-03-08T14:21:20.921Z,12.22
2018-03-08T14:23:48.359Z,12.23
2018-03-08T14:26:15.831Z,12.34
2018-03-08T14:28:43.278Z,12.36
2018-03-08T14:31:10.885Z,12.41
2018-03-08T14:33:38.337Z,12.42
2018-03-08T14:36:05.773Z,12.28
2018-03-08T14:38:33.250Z,12.35
2018-03-08T14:41:00.957Z,12.19
2018-03-08T14:43:28.421Z,12.27
2018-03-08T14:45:56.661Z,12.25
2018-03-08T14:48:24.112Z,12.10
2018-03-08T14:50:51.577Z,12.28
2018-03-08T14:53:19.013Z,12.22
2018-03-08T14:55:46.522Z,12.14
2018-03-08T14:58:14.004Z,12.08
2018-03-08T15:00:41.453Z,12.16
2018-03-08T15:03:08.989Z,12.15
2018-03-08T15:05:36.440Z,12.07
2018-03-08T15:08:04.154Z,12.13
2018-03-08T15:10:31.604Z,12.29
2018-03-08T15:12:59.066Z,12.52
2018-03-08T15:15:26.799Z,12.58
2018-03-08T15:17:54.269Z,12.76
2018-03-08T15:20:21.738Z,12.97
2018-03-08T15:22:49.181Z,12.84
2018-03-08T15:25:16.625Z,12.86
2018-03-08T15:27:44.150Z,12.83
2018-03-08T15:30:11.586Z,12.78
2018-03-08T15:32:39.097Z,12.89
2018-03-08T15:35:06.551Z,12.78
2018-03-08T15:37:33.999Z,12.86
2018-03-08T15:40:01.509Z,12.78
2018-03-08T15:42:28.918Z,12.79
2018-03-08T15:44:56.397Z,12.52
2018-03-08T15:47:23.864Z,12.43
2018-03-08T15:49:51.310Z,12.42
2018-03-08T15:52:18.844Z,12.59
2018-03-08T15:54:46.292Z,12.49
2018-03-08T15:57:13.757Z,12.43
2018-03-08T15:59:41.196Z,12.44
2018-03-08T16:02:08.827Z,12.33
2018-03-08T16:04:36.313Z,12.36
2018-03-08T16:10:21.137Z,12.35
2018-03-08T16:12:49.149Z,12.31
2018-03-08T16:15:16.601Z,12.26
2018-03-08T16:17:44.059Z,12.19
2018-03-08T16:20:11.547Z,12.23
2018-03-08T16:22:39.001Z,12.30
2018-03-08T16:25:06.589Z,12.27
2018-03-08T16:27:34.030Z,12.40
2018-03-08T16:30:01.474Z,12.18
2018-03-08T16:32:28.957Z,12.20
2018-03-08T16:34:56.425Z,12.18
2018-03-08T16:37:24.135Z,12.10
2018-03-08T16:39:51.618Z,12.15
2018-03-08T16:42:20.074Z,12.07
2018-03-08T16:44:47.566Z,12.05
2018-03-08T16:47:15.015Z,12.08
2018-03-08T16:49:42.839Z,11.96
2018-03-08T16:52:10.287Z,11.97
2018-03-08T16:54:37.727Z,11.99
2018-03-08T16:57:05.218Z,11.92
2018-03-08T16:59:32.697Z,11.94
2018-03-08T17:02:00.166Z,11.97
2018-03-08T17:04:27.606Z,11.95
2018-03-08T17:06:55.075Z,11.79
2018-03-08T17:09:22.579Z,11.72
2018-03-08T17:11:50.001Z,11.71
2018-03-08T17:14:17.717Z,11.82
2018-03-08T17:16:45.161Z,11.87
2018-03-08T17:19:12.605Z,11.79
2018-03-08T17:21:40.090Z,11.70
2018-03-08T17:24:07.535Z,11.53
2018-03-08T17:26:35.001Z,11.32
2018-03-08T17:29:02.437Z,11.26
2018-03-08T17:31:29.877Z,11.32
2018-03-08T17:33:57.341Z,11.15
2018-03-08T17:36:24.793Z,11.10
2018-03-08T17:38:52.409Z,11.04
2018-03-08T17:41:19.862Z,10.98
2018-03-08T17:43:47.310Z,10.78
2018-03-08T17:46:14.905Z,10.65
2018-03-08T17:48:42.367Z,10.57
2018-03-08T17:51:10.161Z,10.41
2018-03-08T17:53:37.603Z,10.15
2018-03-08T17:56:05.065Z,9.68
2018-03-08T17:58:32.523Z,9.25
2018-03-08T18:01:00.409Z,9.08
2018-03-08T18:03:27.878Z,8.84
2018-03-08T18:05:55.322Z,8.68
2018-03-08T18:08:22.762Z,8.71
2018-03-08T18:10:50.261Z,8.37
2018-03-08T18:13:17.697Z,8.29
2018-03-08T18:15:45.493Z,8.10
2018-03-08T18:18:12.933Z,7.82
2018-03-08T18:20:41.385Z,7.88
2018-03-08T18:23:08.852Z,7.62
2018-03-08T18:25:36.286Z,7.39
2018-03-08T18:28:03.800Z,7.30
2018-03-08T18:30:31.233Z,7.32
2018-03-08T18:32:58.673Z,7.18
2018-03-08T18:35:26.294Z,7.21
2018-03-08T18:37:53.760Z,7.02
2018-03-08T18:40:21.217Z,7.02
2018-03-08T18:42:48.654Z,6.96
2018-03-08T18:45:16.450Z,7.09
2018-03-08T18:47:44.078Z,6.97
2018-03-08T18:50:11.534Z,6.88
2018-03-08T18:52:39.005Z,6.83
2018-03-08T18:55:06.441Z,6.75
2018-03-08T18:57:34.093Z,6.75
2018-03-08T19:00:01.625Z,6.74
2018-03-08T19:02:29.073Z,6.86
2018-03-08T19:04:56.542Z,6.87
2018-03-08T19:07:24.010Z,6.53
2018-03-08T19:09:51.761Z,6.66
2018-03-08T19:12:19.229Z,6.62
2018-03-08T19:14:46.678Z,6.48
2018-03-08T19:17:14.161Z,6.47
2018-03-08T19:19:41.620Z,6.45
2018-03-08T19:22:09.522Z,6.41
2018-03-08T19:24:36.962Z,6.72
2018-03-08T19:27:04.482Z,6.75
2018-03-08T19:29:31.945Z,6.43
2018-03-08T19:31:59.386Z,6.29
2018-03-08T19:34:26.900Z,6.41
2018-03-08T19:36:54.404Z,6.29
2018-03-08T19:39:21.846Z,6.21
2018-03-08T19:41:49.309Z,6.31
2018-03-08T19:44:16.745Z,6.29
2018-03-08T19:46:44.509Z,6.49
2018-03-08T19:49:13.345Z,6.32
2018-03-08T19:51:40.794Z,6.42
2018-03-08T19:54:08.250Z,6.37
2018-03-08T19:56:35.702Z,6.39
2018-03-08T19:59:03.200Z,6.61
2018-03-08T20:01:30.637Z,6.45
2018-03-08T20:03:58.946Z,6.46
2018-03-08T20:06:26.413Z,6.47
2018-03-08T20:08:53.852Z,6.58
2018-03-08T20:11:21.355Z,6.24
2018-03-08T20:13:48.806Z,6.69
2018-03-08T20:16:16.257Z,6.48
2018-03-08T20:18:43.721Z,6.66
2018-03-08T20:21:11.157Z,6.36
2018-03-08T20:23:38.641Z,6.29
2018-03-08T20:26:06.856Z,6.31
2018-03-08T20:28:34.293Z,6.46
2018-03-08T20:31:01.761Z,6.70
2018-03-08T20:33:29.217Z,6.83
2018-03-08T20:35:56.691Z,6.65
2018-03-08T20:38:24.379Z,6.62
2018-03-08T20:40:51.816Z,6.52
2018-03-08T20:43:19.277Z,6.44
2018-03-08T20:45:46.810Z,6.39
2018-03-08T20:48:14.289Z,6.48
2018-03-08T20:50:41.726Z,6.21
2018-03-08T20:53:09.174Z,6.54
2018-03-08T20:55:36.665Z,6.64
2018-03-08T20:58:04.133Z,6.57
2018-03-08T21:00:31.635Z,6.67
2018-03-08T21:02:59.090Z,6.57
2018-03-08T21:05:26.530Z,6.62
2018-03-08T21:07:54.006Z,6.53
2018-03-08T21:10:21.441Z,6.60
2018-03-08T21:12:49.029Z,6.52
2018-03-08T21:15:16.490Z,6.51
2018-03-08T21:17:43.939Z,6.44
2018-03-08T21:20:11.405Z,6.78
2018-03-08T21:22:38.854Z,6.57
2018-03-08T21:25:06.466Z,6.37
2018-03-08T21:27:33.916Z,6.29
2018-03-08T21:30:01.350Z,6.45
2018-03-08T21:32:28.810Z,6.27
2018-03-08T21:34:56.246Z,6.42
2018-03-08T21:37:23.817Z,6.17
2018-03-08T21:39:51.266Z,6.23
2018-03-08T21:42:18.709Z,6.12
2018-03-08T21:44:46.165Z,6.20
2018-03-08T21:47:13.605Z,6.14
2018-03-08T21:49:41.268Z,6.15
2018-03-08T21:52:08.705Z,6.15
2018-03-08T21:54:36.170Z,6.18
2018-03-08T21:57:03.625Z,5.99
2018-03-08T21:59:31.117Z,6.13
2018-03-08T22:01:58.746Z,6.35
2018-03-08T22:04:26.187Z,6.15
2018-03-08T22:06:53.621Z,6.06
2018-03-08T22:09:21.083Z,5.95
2018-03-08T22:11:48.526Z,5.97
2018-03-08T22:14:16.177Z,5.88
2018-03-08T22:16:43.631Z,5.76
2018-03-08T22:19:11.067Z,5.87
2018-03-08T22:21:38.542Z,5.72
2018-03-08T22:24:05.977Z,5.72
2018-03-08T22:26:33.625Z,5.70
2018-03-08T22:29:01.059Z,5.67
2018-03-08T22:31:28.501Z,5.85
2018-03-08T22:33:55.957Z,5.85
2018-03-08T22:36:23.392Z,5.80
2018-03-08T22:38:50.862Z,5.81
2018-03-08T22:41:18.298Z,5.77
2018-03-08T22:43:45.738Z,5.96
2018-03-08T22:46:13.197Z,5.72
2018-03-08T22:48:40.638Z,5.61
2018-03-08T22:51:08.130Z,5.83
2018-03-08T22:53:35.568Z,5.88
2018-03-08T22:56:03.016Z,5.63
2018-03-08T22:58:30.473Z,5.58
2018-03-08T23:00:57.911Z,5.61
2018-03-08T23:03:29.332Z,5.77
2018-03-08T23:05:56.766Z,5.68
2018-03-08T23:08:24.209Z,5.61
2018-03-08T23:10:51.677Z,5.52
2018-03-08T23:13:19.137Z,5.62
2018-03-08T23:15:46.570Z,5.76
2018-03-08T23:18:14.047Z,5.69
2018-03-08T23:20:41.493Z,5.60
2018-03-08T23:23:09.234Z,5.72
2018-03-08T23:25:36.678Z,5.48
2018-03-08T23:28:04.133Z,5.48
2018-03-08T23:30:31.589Z,5.67
2018-03-08T23:32:59.022Z,5.57
2018-03-08T23:35:26.494Z,5.37
2018-03-08T23:37:53.934Z,5.50
2018-03-08T23:40:21.369Z,5.56
2018-03-08T23:42:48.833Z,5.17
2018-03-08T23:45:16.278Z,5.28
2018-03-08T23:47:43.766Z,5.34
2018-03-08T23:50:11.202Z,5.32
2018-03-08T23:52:38.646Z,5.22
2018-03-08T23:55:06.101Z,4.98
2018-03-08T23:57:33.542Z,4.93
